This is the latest recevied weather packets stored in our database for station/object E22ZMG-3. If no packets are shown the sender has not sent any weather packets the latest 10 day(s).
| Time | Temp. | Humidity | Pressure | Rain* | Wind** | Luminosity | Snow |
|---|---|---|---|---|---|---|---|
| 1777861629 | 36.11° C | 38% | 978 hPa | - | - | 0 W/m² | - |
| 1777861004 | 36.11° C | 39% | 978 hPa | - | - | 0 W/m² | - |
| 1777860379 | 36.11° C | 39% | 978 hPa | - | - | 0 W/m² | - |
| 1777859755 | 36.11° C | 39% | 978 hPa | - | - | 0 W/m² | - |
| 1777859130 | 35.56° C | 40% | 978 hPa | - | - | 0 W/m² | - |
| 1777858505 | 35.56° C | 41% | 978 hPa | - | - | 0 W/m² | - |
| 1777857881 | 34.44° C | 43% | 978 hPa | - | - | 0 W/m² | - |
| 1777857252 | 34.44° C | 44% | 978 hPa | - | - | 0 W/m² | - |
| 1777856995 | 33.89° C | 45% | 978 hPa | - | - | 0 W/m² | - |
| 1777856370 | 33.33° C | 44% | 978 hPa | - | - | 0 W/m² | - |
| 1777855745 | 32.78° C | 47% | 977 hPa | - | - | 0 W/m² | - |
| 1777855120 | 32.78° C | 49% | 977 hPa | - | - | 0 W/m² | - |
| 1777854495 | 32.22° C | 50% | 977 hPa | - | - | 0 W/m² | - |
| 1777853870 | 31.67° C | 53% | 977 hPa | - | - | 0 W/m² | - |
| 1777853245 | 31.11° C | 59% | 977 hPa | - | - | 0 W/m² | - |
| 1777852620 | 30.56° C | 59% | 977 hPa | - | - | 0 W/m² | - |
| 1777851993 | 31.67° C | 57% | 977 hPa | - | - | 0 W/m² | - |
| 1777851369 | 30.56° C | 60% | 977 hPa | - | - | 0 W/m² | - |
| 1777850744 | 30.56° C | 60% | 977 hPa | - | - | 0 W/m² | - |
| 1777850119 | 30.56° C | 59% | 977 hPa | - | - | 0 W/m² | - |
| 1777849494 | 30° C | 59% | 977 hPa | - | - | 0 W/m² | - |
| 1777848869 | 30.56° C | 58% | 976 hPa | - | - | 0 W/m² | - |
| 1777848245 | 31.67° C | 55% | 976 hPa | - | - | 0 W/m² | - |
| 1777847620 | 31.11° C | 56% | 976 hPa | - | - | 0 W/m² | - |
| 1777846995 | 31.11° C | 57% | 976 hPa | - | - | 0 W/m² | - |
* Rain since midnight (hover to see other rain measurements)
** Current wind speed in m/s (hover to see current wind gust speed)